createdAt,value
2019-02-03T00:01:43.331Z,35.77
2019-02-03T00:04:12.440Z,33.50
2019-02-03T00:06:44.307Z,31.77
2019-02-03T00:09:18.532Z,30.27
2019-02-03T00:11:51.149Z,29.63
2019-02-03T00:14:20.321Z,30.60
2019-02-03T00:16:50.967Z,29.47
2019-02-03T00:19:19.834Z,28.00
2019-02-03T00:21:49.237Z,28.23
2019-02-03T00:24:18.448Z,27.30
2019-02-03T00:26:47.386Z,26.80
2019-02-03T00:29:16.660Z,27.37
2019-02-03T00:31:46.348Z,28.03
2019-02-03T00:34:15.262Z,25.97
2019-02-03T00:36:44.317Z,26.80
2019-02-03T00:39:13.364Z,26.07
2019-02-03T00:41:49.688Z,27.23
2019-02-03T00:44:19.234Z,25.20
2019-02-03T00:46:48.636Z,26.10
2019-02-03T00:49:17.616Z,25.27
2019-02-03T00:51:46.647Z,25.00
2019-02-03T00:54:16.250Z,22.77
2019-02-03T00:56:47.323Z,24.30
2019-02-03T00:59:16.869Z,23.73
2019-02-03T01:01:46.723Z,24.07
2019-02-03T01:04:15.659Z,24.93
2019-02-03T01:06:45.293Z,23.70
2019-02-03T01:09:20.883Z,24.33
2019-02-03T01:11:51.866Z,23.63
2019-02-03T01:14:21.462Z,24.23
2019-02-03T01:16:50.455Z,25.00
2019-02-03T01:19:19.532Z,24.23
2019-02-03T01:21:48.597Z,25.10
2019-02-03T01:24:21.843Z,27.03
2019-02-03T01:26:50.870Z,27.47
2019-02-03T01:29:20.475Z,26.83
2019-02-03T01:31:49.766Z,28.20
2019-02-03T01:34:18.744Z,28.20
2019-02-03T01:36:47.956Z,27.40
2019-02-03T01:39:16.969Z,29.57
2019-02-03T01:41:46.428Z,29.03
2019-02-03T01:44:17.509Z,28.87
2019-02-03T01:49:35.716Z,26.83
2019-02-03T01:52:04.820Z,26.33
2019-02-03T01:54:34.632Z,25.50
2019-02-03T01:57:04.126Z,25.80
2019-02-03T01:59:33.456Z,26.40
2019-02-03T02:02:02.869Z,25.17
2019-02-03T02:04:32.516Z,24.83
2019-02-03T02:07:01.959Z,25.33
2019-02-03T02:09:30.894Z,24.60
2019-02-03T02:12:00.142Z,22.83
2019-02-03T02:14:29.093Z,22.30
2019-02-03T02:16:58.255Z,21.60
2019-02-03T02:19:29.455Z,20.33
2019-02-03T02:21:59.176Z,18.87
2019-02-03T02:27:38.470Z,16.97
2019-02-03T02:30:09.218Z,17.20
2019-02-03T02:32:39.350Z,15.27
2019-02-03T02:35:09.181Z,17.67
2019-02-03T02:37:38.356Z,17.47
2019-02-03T02:40:13.288Z,16.53
2019-02-03T02:42:41.738Z,15.87
2019-02-03T02:45:11.072Z,15.80
2019-02-03T02:47:40.017Z,15.90
2019-02-03T02:50:12.661Z,14.73
2019-02-03T02:52:42.540Z,14.30
2019-02-03T02:55:11.816Z,15.00
2019-02-03T02:57:40.788Z,14.13
2019-02-03T03:00:12.722Z,14.87
2019-02-03T03:02:42.005Z,14.33
2019-02-03T03:05:11.477Z,14.43
2019-02-03T03:07:41.144Z,13.57
2019-02-03T03:10:17.649Z,13.63
2019-02-03T03:12:47.043Z,13.50
2019-02-03T03:15:17.443Z,13.50
2019-02-03T03:17:47.039Z,13.53
2019-02-03T03:20:18.319Z,12.90
2019-02-03T03:22:50.842Z,12.07
2019-02-03T03:25:20.193Z,10.87
2019-02-03T03:27:49.366Z,11.77
2019-02-03T03:30:27.302Z,11.50
2019-02-03T03:32:58.047Z,10.87
2019-02-03T03:35:27.718Z,10.47
2019-02-03T03:37:56.686Z,9.30
2019-02-03T03:40:27.752Z,10.70
2019-02-03T03:42:57.629Z,10.00
2019-02-03T03:45:27.975Z,10.47
2019-02-03T03:47:58.168Z,9.17
2019-02-03T03:50:27.902Z,8.97
2019-02-03T03:52:57.384Z,9.73
2019-02-03T03:55:26.739Z,9.40
2019-02-03T03:57:55.655Z,9.03
2019-02-03T04:00:26.076Z,9.67
2019-02-03T04:02:55.586Z,10.87
2019-02-03T04:05:24.790Z,10.90
2019-02-03T04:07:54.496Z,10.60
2019-02-03T04:10:24.095Z,10.47
2019-02-03T04:12:59.412Z,9.77
2019-02-03T04:15:29.636Z,8.70
2019-02-03T04:17:58.622Z,7.13
2019-02-03T04:20:29.530Z,6.53
2019-02-03T04:22:58.670Z,6.33
2019-02-03T04:25:27.808Z,6.37
2019-02-03T04:27:57.352Z,5.67
2019-02-03T04:30:26.954Z,6.10
2019-02-03T04:32:56.356Z,5.50
2019-02-03T04:35:25.642Z,6.03
2019-02-03T04:37:54.666Z,5.87
2019-02-03T04:40:23.718Z,5.40
2019-02-03T04:42:53.044Z,4.90
2019-02-03T04:45:22.909Z,5.17
2019-02-03T04:47:52.013Z,4.50
2019-02-03T04:50:21.513Z,5.07
2019-02-03T04:52:51.498Z,4.90
2019-02-03T04:55:21.501Z,4.63
2019-02-03T04:57:50.457Z,4.13
2019-02-03T05:00:21.397Z,3.97
2019-02-03T05:02:50.303Z,3.73
2019-02-03T05:05:23.490Z,3.30
2019-02-03T05:07:52.843Z,3.17
2019-02-03T05:10:22.069Z,3.30
2019-02-03T05:12:51.232Z,3.57
2019-02-03T05:15:22.527Z,3.77
2019-02-03T05:17:52.266Z,2.87
2019-02-03T05:20:24.104Z,2.90
2019-02-03T05:22:53.162Z,2.87
2019-02-03T05:25:22.865Z,3.03
2019-02-03T05:27:54.939Z,3.33
2019-02-03T05:30:29.342Z,2.90
2019-02-03T05:32:58.613Z,3.67
2019-02-03T05:35:29.815Z,3.20
2019-02-03T05:37:58.761Z,3.70
2019-02-03T05:40:28.216Z,3.50
2019-02-03T05:42:57.371Z,2.83
2019-02-03T05:45:26.693Z,3.47
2019-02-03T05:47:56.531Z,3.27
2019-02-03T05:51:19.674Z,3.17
2019-02-03T05:53:48.519Z,3.63
2019-02-03T05:56:18.238Z,3.33
2019-02-03T05:58:47.406Z,3.90
2019-02-03T06:01:19.550Z,3.67
2019-02-03T06:03:48.683Z,3.33
2019-02-03T06:06:18.391Z,4.07
2019-02-03T06:08:47.482Z,3.90
2019-02-03T06:11:16.457Z,3.80
2019-02-03T06:13:51.319Z,3.87
2019-02-03T06:16:23.404Z,3.87
2019-02-03T06:18:53.107Z,3.90
2019-02-03T06:21:22.133Z,3.53
2019-02-03T06:23:51.000Z,3.47
2019-02-03T06:26:20.036Z,3.70
2019-02-03T06:28:48.960Z,4.13
2019-02-03T06:31:19.490Z,3.33
2019-02-03T06:33:50.573Z,3.60
2019-02-03T06:36:19.836Z,3.53
2019-02-03T06:38:49.266Z,3.30
2019-02-03T06:41:18.192Z,3.30
2019-02-03T06:43:47.546Z,2.60
2019-02-03T06:46:44.925Z,3.10
2019-02-03T06:49:28.860Z,3.27
2019-02-03T06:51:59.195Z,2.90
2019-02-03T06:54:28.422Z,3.10
2019-02-03T06:56:58.118Z,3.70
2019-02-03T06:59:27.974Z,3.40
2019-02-03T07:01:59.666Z,3.63
2019-02-03T07:04:29.014Z,3.30
2019-02-03T07:06:57.992Z,3.57
2019-02-03T07:09:26.969Z,3.30
2019-02-03T07:11:55.913Z,3.57
2019-02-03T07:14:27.338Z,3.83
2019-02-03T07:16:57.600Z,4.60
2019-02-03T07:19:30.123Z,4.33
2019-02-03T07:21:59.365Z,4.30
2019-02-03T07:24:30.110Z,3.93
2019-02-03T07:26:59.403Z,4.60
2019-02-03T07:29:28.689Z,4.13
2019-02-03T07:31:57.670Z,4.30
2019-02-03T07:34:29.018Z,4.07
2019-02-03T07:36:57.931Z,4.90
2019-02-03T07:39:27.882Z,4.77
2019-02-03T07:42:00.219Z,4.07
2019-02-03T07:44:29.198Z,4.17
2019-02-03T07:46:58.688Z,4.47
2019-02-03T07:49:27.897Z,4.43
2019-02-03T07:51:56.908Z,4.30
2019-02-03T07:54:25.861Z,4.73
2019-02-03T07:56:56.095Z,4.50
2019-02-03T07:59:25.301Z,5.17
2019-02-03T08:01:54.531Z,5.10
2019-02-03T08:04:24.689Z,4.43
2019-02-03T08:06:53.996Z,5.90
2019-02-03T08:09:23.805Z,5.50
2019-02-03T08:11:53.244Z,5.80
2019-02-03T08:14:22.270Z,6.17
2019-02-03T08:16:51.545Z,6.80
2019-02-03T08:19:20.570Z,5.47
2019-02-03T08:21:50.121Z,6.03
2019-02-03T08:24:19.790Z,5.47
2019-02-03T08:26:48.882Z,4.83
2019-02-03T08:29:20.039Z,5.17
2019-02-03T08:31:49.326Z,4.63
2019-02-03T08:34:18.522Z,5.20
2019-02-03T08:36:47.452Z,5.07
2019-02-03T08:39:17.029Z,5.03
2019-02-03T08:41:48.323Z,5.23
2019-02-03T08:44:17.364Z,5.00
2019-02-03T08:46:46.438Z,4.23
2019-02-03T08:49:16.369Z,3.60
2019-02-03T08:51:46.531Z,4.03
2019-02-03T08:54:19.273Z,3.67
2019-02-03T08:56:49.500Z,3.50
2019-02-03T08:59:18.722Z,3.83
2019-02-03T09:01:48.012Z,3.00
2019-02-03T09:04:18.049Z,3.53
2019-02-03T09:06:48.116Z,3.33
2019-02-03T09:09:20.604Z,2.97
2019-02-03T09:11:50.414Z,3.00
2019-02-03T09:14:20.050Z,3.53
2019-02-03T09:16:53.537Z,3.37
2019-02-03T09:19:22.585Z,4.53
2019-02-03T09:21:51.808Z,3.13
2019-02-03T09:24:20.955Z,4.03
2019-02-03T09:26:50.287Z,2.87
2019-02-03T09:29:19.281Z,3.13
2019-02-03T09:31:48.701Z,3.20
2019-02-03T09:34:19.280Z,2.70
2019-02-03T09:36:48.246Z,2.93
2019-02-03T09:39:17.312Z,3.13
2019-02-03T09:41:46.444Z,2.63
2019-02-03T09:44:16.074Z,2.98
2019-02-03T09:46:45.707Z,3.50
2019-02-03T09:49:15.146Z,3.22
2019-02-03T09:51:44.404Z,2.80
2019-02-03T09:54:13.383Z,2.43
2019-02-03T09:56:43.067Z,2.43
2019-02-03T09:59:16.059Z,2.70
2019-02-03T10:01:45.188Z,2.37
2019-02-03T10:04:14.386Z,2.33
2019-02-03T10:06:43.469Z,2.67
2019-02-03T10:09:12.238Z,2.30
2019-02-03T10:11:41.531Z,2.33
2019-02-03T10:14:13.758Z,1.90
2019-02-03T10:16:49.638Z,1.87
2019-02-03T10:19:18.939Z,2.23
2019-02-03T10:21:51.454Z,1.80
2019-02-03T10:24:21.171Z,1.70
2019-02-03T10:26:50.183Z,1.73
2019-02-03T10:29:19.273Z,1.67
2019-02-03T10:31:50.136Z,1.60
2019-02-03T10:34:19.124Z,1.60
2019-02-03T10:36:48.477Z,1.47
2019-02-03T10:39:21.072Z,1.10
2019-02-03T10:41:50.006Z,1.20
2019-02-03T10:44:22.225Z,1.00
2019-02-03T10:46:51.962Z,1.40
2019-02-03T10:49:25.305Z,1.60
2019-02-03T10:51:55.328Z,1.37
2019-02-03T10:54:25.943Z,2.50
2019-02-03T10:56:56.214Z,1.23
2019-02-03T10:59:25.735Z,1.40
2019-02-03T11:01:56.667Z,1.20
2019-02-03T11:04:27.653Z,0.93
2019-02-03T11:06:56.894Z,1.03
2019-02-03T11:09:26.300Z,1.83
2019-02-03T11:11:58.505Z,1.60
2019-02-03T11:14:31.146Z,1.47
2019-02-03T11:17:03.703Z,0.90
2019-02-03T11:19:34.404Z,1.20
2019-02-03T11:22:08.286Z,1.40
2019-02-03T11:27:12.607Z,1.33
2019-02-03T11:29:41.701Z,1.13
2019-02-03T11:32:11.274Z,2.90
2019-02-03T11:34:40.370Z,1.93
2019-02-03T11:37:10.228Z,1.40
2019-02-03T11:39:39.667Z,1.30
2019-02-03T11:42:08.702Z,1.00
2019-02-03T11:44:39.182Z,1.60
2019-02-03T11:47:08.466Z,1.30
2019-02-03T11:49:37.850Z,1.13
2019-02-03T11:52:07.228Z,1.33
2019-02-03T11:54:39.994Z,1.47
2019-02-03T11:57:09.328Z,1.33
2019-02-03T11:59:40.190Z,1.60
2019-02-03T12:02:09.828Z,1.07
2019-02-03T12:04:39.264Z,1.30
2019-02-03T12:07:09.161Z,1.10
2019-02-03T12:09:38.372Z,1.10
2019-02-03T12:12:07.481Z,1.40
2019-02-03T12:14:36.493Z,1.10
2019-02-03T12:17:05.916Z,1.00
2019-02-03T12:19:35.220Z,1.10
2019-02-03T12:22:04.943Z,1.27
2019-02-03T12:24:34.827Z,1.17
2019-02-03T12:27:04.090Z,1.30
2019-02-03T12:29:33.014Z,1.20
2019-02-03T12:32:02.393Z,1.33
2019-02-03T12:34:38.721Z,0.60
2019-02-03T12:37:08.607Z,0.97
2019-02-03T12:39:38.292Z,1.00
2019-02-03T12:42:13.077Z,1.00
2019-02-03T12:44:38.225Z,1.30
2019-02-03T12:47:10.193Z,0.70
2019-02-03T12:49:39.275Z,0.90
2019-02-03T12:52:08.664Z,1.03
2019-02-03T12:54:37.791Z,1.03
2019-02-03T12:57:09.621Z,1.07
2019-02-03T12:59:39.477Z,1.00
2019-02-03T13:02:08.829Z,1.07
2019-02-03T13:04:39.345Z,0.77
2019-02-03T13:07:08.788Z,0.87
2019-02-03T13:09:39.097Z,0.80
2019-02-03T13:12:11.256Z,0.90
2019-02-03T13:14:40.306Z,0.80
2019-02-03T13:17:12.916Z,1.03
2019-02-03T13:19:45.369Z,0.80
2019-02-03T13:22:15.072Z,0.80
2019-02-03T13:24:45.086Z,1.00
2019-02-03T13:27:15.094Z,0.83
2019-02-03T13:29:44.694Z,1.27
2019-02-03T13:32:16.326Z,0.83
2019-02-03T13:34:45.387Z,0.90
2019-02-03T13:37:14.607Z,0.93
2019-02-03T13:39:44.645Z,1.07
2019-02-03T13:42:15.011Z,0.70
2019-02-03T13:44:44.251Z,0.90
2019-02-03T13:47:14.523Z,0.93
2019-02-03T13:49:44.127Z,0.97
2019-02-03T13:52:13.557Z,0.90
2019-02-03T13:54:42.655Z,1.03
2019-02-03T13:57:12.070Z,0.90
2019-02-03T13:59:41.195Z,0.70
2019-02-03T14:02:10.339Z,1.00
2019-02-03T14:04:42.508Z,0.73
2019-02-03T14:07:11.514Z,0.73
2019-02-03T14:09:40.925Z,1.20
2019-02-03T14:12:16.274Z,1.00
2019-02-03T14:14:45.357Z,0.63
2019-02-03T14:17:14.826Z,0.80
2019-02-03T14:19:44.155Z,1.07
2019-02-03T14:22:14.530Z,0.77
2019-02-03T14:24:43.838Z,2.57
2019-02-03T14:27:14.040Z,1.83
2019-02-03T14:29:43.403Z,0.87
2019-02-03T14:32:12.463Z,1.60
2019-02-03T14:34:42.376Z,1.93
2019-02-03T14:37:11.687Z,1.47
2019-02-03T14:39:40.666Z,1.00
2019-02-03T14:42:10.082Z,0.80
2019-02-03T14:44:40.118Z,0.60
2019-02-03T14:47:10.008Z,0.70
2019-02-03T14:49:39.053Z,1.10
2019-02-03T14:52:14.183Z,0.90
2019-02-03T14:54:43.521Z,0.77
2019-02-03T14:57:12.860Z,0.73
2019-02-03T14:59:42.723Z,1.00
2019-02-03T15:02:11.723Z,1.03
2019-02-03T15:04:41.531Z,0.60
2019-02-03T15:07:12.179Z,1.00
2019-02-03T15:09:41.285Z,0.70
2019-02-03T15:12:10.178Z,1.07
2019-02-03T15:14:39.178Z,1.00
2019-02-03T15:17:08.291Z,0.90
2019-02-03T15:19:38.638Z,0.77
2019-02-03T15:22:07.663Z,0.73
2019-02-03T15:24:36.688Z,0.80
2019-02-03T15:27:05.917Z,0.80
2019-02-03T15:29:35.319Z,0.90
2019-02-03T15:32:05.930Z,0.90
2019-02-03T15:34:34.921Z,1.37
2019-02-03T15:37:04.334Z,1.43
2019-02-03T15:39:33.760Z,0.60
2019-02-03T15:42:02.845Z,0.87
2019-02-03T15:44:34.565Z,0.80
2019-02-03T15:47:07.144Z,0.90
2019-02-03T15:49:37.305Z,1.00
2019-02-03T15:52:07.226Z,0.97
2019-02-03T15:54:36.467Z,1.13
2019-02-03T15:57:05.583Z,1.23
2019-02-03T15:59:35.275Z,1.67
2019-02-03T16:02:04.308Z,1.30
2019-02-03T16:04:33.405Z,2.57
2019-02-03T16:07:02.796Z,1.13
2019-02-03T16:09:33.799Z,1.40
2019-02-03T16:12:02.838Z,0.87
2019-02-03T16:14:34.948Z,0.97
2019-02-03T16:17:04.410Z,1.37
2019-02-03T16:19:41.809Z,0.97
2019-02-03T16:22:11.501Z,1.50
2019-02-03T16:24:41.878Z,1.43
2019-02-03T16:27:11.479Z,1.43
2019-02-03T16:29:40.530Z,0.93
2019-02-03T16:32:09.458Z,1.70
2019-02-03T16:34:38.784Z,2.47
2019-02-03T16:37:07.860Z,2.70
2019-02-03T16:39:41.980Z,1.83
2019-02-03T16:42:13.133Z,2.27
2019-02-03T16:44:42.157Z,2.80
2019-02-03T16:47:11.555Z,2.47
2019-02-03T16:49:41.117Z,2.60
2019-02-03T16:52:12.635Z,2.27
2019-02-03T16:54:41.437Z,2.20
2019-02-03T16:57:13.971Z,1.93
2019-02-03T16:59:43.672Z,2.40
2019-02-03T17:02:16.293Z,1.77
2019-02-03T17:04:45.323Z,2.43
2019-02-03T17:07:14.413Z,2.03
2019-02-03T17:09:43.384Z,2.27
2019-02-03T17:12:14.297Z,2.20
2019-02-03T17:14:43.507Z,2.27
2019-02-03T17:17:12.679Z,2.90
2019-02-03T17:19:42.765Z,2.80
2019-02-03T17:22:12.343Z,3.00
2019-02-03T17:24:41.415Z,3.13
2019-02-03T17:27:11.359Z,3.10
2019-02-03T17:29:43.785Z,2.80
2019-02-03T17:32:13.142Z,2.90
2019-02-03T17:34:42.347Z,3.00
2019-02-03T17:37:11.545Z,3.07
2019-02-03T17:39:41.172Z,2.57
2019-02-03T17:42:10.362Z,3.20
2019-02-03T17:44:40.332Z,2.43
2019-02-03T17:47:09.478Z,2.20
2019-02-03T17:49:39.336Z,1.93
2019-02-03T17:52:08.512Z,2.43
2019-02-03T17:54:37.661Z,2.33
2019-02-03T17:57:07.264Z,3.20
2019-02-03T17:59:36.515Z,3.93
2019-02-03T18:02:06.323Z,2.73
2019-02-03T18:04:38.764Z,2.23
2019-02-03T18:07:08.523Z,2.43
2019-02-03T18:09:37.720Z,2.60
2019-02-03T18:12:07.118Z,2.67
2019-02-03T18:14:36.313Z,2.07
2019-02-03T18:17:06.194Z,2.47
2019-02-03T18:19:35.358Z,2.43
2019-02-03T18:22:05.776Z,2.40
2019-02-03T18:24:35.530Z,3.63
2019-02-03T18:27:04.728Z,6.47
2019-02-03T18:29:34.585Z,5.37
2019-02-03T18:32:03.816Z,5.33
2019-02-03T18:34:33.670Z,6.37
2019-02-03T18:37:03.400Z,4.77
2019-02-03T18:39:32.841Z,4.50
2019-02-03T18:42:02.118Z,5.40
2019-02-03T18:44:36.000Z,6.17
2019-02-03T18:47:05.267Z,4.63
2019-02-03T18:49:34.673Z,3.83
2019-02-03T18:52:05.127Z,3.93
2019-02-03T18:54:34.320Z,4.63
2019-02-03T18:57:03.894Z,6.53
2019-02-03T18:59:33.023Z,4.30
2019-02-03T19:02:02.364Z,4.77
2019-02-03T19:04:31.446Z,4.27
2019-02-03T19:07:00.758Z,4.77
2019-02-03T19:09:31.452Z,4.53
2019-02-03T19:12:00.482Z,5.23
2019-02-03T19:14:29.983Z,4.00
2019-02-03T19:16:59.407Z,4.00
2019-02-03T19:19:32.304Z,3.90
2019-02-03T19:22:02.385Z,4.13
2019-02-03T19:24:31.637Z,3.70
2019-02-03T19:27:00.765Z,4.00
2019-02-03T19:29:31.559Z,4.33
2019-02-03T19:32:00.968Z,3.83
2019-02-03T19:34:29.986Z,4.10
2019-02-03T19:37:05.581Z,3.93
2019-02-03T19:39:30.036Z,3.90
2019-02-03T19:41:59.751Z,4.73
2019-02-03T19:44:29.291Z,4.30
2019-02-03T19:46:58.468Z,4.63
2019-02-03T19:49:30.701Z,4.23
2019-02-03T19:52:02.948Z,4.10
2019-02-03T19:54:32.235Z,4.87
2019-02-03T19:57:03.634Z,5.23
2019-02-03T19:59:32.734Z,5.33
2019-02-03T20:02:02.616Z,4.77
2019-02-03T20:04:33.760Z,4.37
2019-02-03T20:07:02.846Z,5.00
2019-02-03T20:09:31.826Z,5.30
2019-02-03T20:12:01.136Z,5.90
2019-02-03T20:14:30.191Z,4.90
2019-02-03T20:16:59.570Z,5.07
2019-02-03T20:19:29.061Z,5.40
2019-02-03T20:22:01.137Z,5.37
2019-02-03T20:24:30.479Z,5.90
2019-02-03T20:27:00.402Z,5.80
2019-02-03T20:29:29.510Z,6.47
2019-02-03T20:31:59.781Z,7.40
2019-02-03T20:34:28.848Z,6.10
2019-02-03T20:37:01.390Z,6.10
2019-02-03T20:39:30.654Z,6.13
2019-02-03T20:41:59.797Z,5.83
2019-02-03T20:44:32.221Z,5.40
2019-02-03T20:47:02.195Z,5.73
2019-02-03T20:49:31.622Z,6.00
2019-02-03T20:52:01.028Z,5.33
2019-02-03T20:54:30.431Z,5.27
2019-02-03T20:57:01.013Z,5.97
2019-02-03T20:59:30.564Z,5.20
2019-02-03T21:02:01.823Z,5.13
2019-02-03T21:04:30.847Z,5.03
2019-02-03T21:07:02.798Z,4.83
2019-02-03T21:09:32.795Z,4.70
2019-02-03T21:12:05.826Z,4.43
2019-02-03T21:14:34.265Z,4.43
2019-02-03T21:17:03.666Z,4.97
2019-02-03T21:19:33.819Z,4.37
2019-02-03T21:22:04.102Z,3.87
2019-02-03T21:24:40.268Z,4.50
2019-02-03T21:27:09.270Z,3.70
2019-02-03T21:29:39.195Z,3.97
2019-02-03T21:32:08.571Z,4.13
2019-02-03T21:34:37.973Z,4.07
2019-02-03T21:37:07.128Z,4.53
2019-02-03T21:39:36.835Z,5.87
2019-02-03T21:42:06.022Z,5.30
2019-02-03T21:44:35.069Z,3.20
2019-02-03T21:47:04.084Z,2.83
2019-02-03T21:49:33.120Z,3.57
2019-02-03T21:52:02.329Z,2.90
2019-02-03T21:54:31.433Z,3.23
2019-02-03T21:57:01.814Z,3.10
2019-02-03T21:59:30.920Z,2.80
2019-02-03T22:01:59.995Z,2.63
2019-02-03T22:04:29.002Z,2.60
2019-02-03T22:06:58.990Z,2.97
2019-02-03T22:09:28.515Z,2.87
2019-02-03T22:11:57.543Z,2.80
2019-02-03T22:14:28.027Z,2.60
2019-02-03T22:16:57.102Z,2.83
2019-02-03T22:19:26.166Z,3.20
2019-02-03T22:21:55.206Z,2.70
2019-02-03T22:24:24.715Z,2.60
2019-02-03T22:26:54.756Z,2.90
2019-02-03T22:29:23.945Z,2.93
2019-02-03T22:31:53.084Z,2.57
2019-02-03T22:34:22.613Z,3.30
2019-02-03T22:36:52.069Z,3.10
2019-02-03T22:39:21.129Z,3.23
2019-02-03T22:41:50.478Z,3.40
2019-02-03T22:44:20.344Z,3.47
2019-02-03T22:46:49.780Z,2.67
2019-02-03T22:49:18.882Z,3.10
2019-02-03T22:51:48.895Z,3.40
2019-02-03T22:54:18.330Z,3.17
2019-02-03T22:56:47.275Z,3.10
2019-02-03T22:59:19.483Z,2.57
2019-02-03T23:01:50.375Z,3.10
2019-02-03T23:04:22.182Z,3.30
2019-02-03T23:06:51.910Z,2.77
2019-02-03T23:09:35.054Z,2.70
2019-02-03T23:13:02.553Z,3.13
2019-02-03T23:15:31.826Z,2.70
2019-02-03T23:18:00.922Z,2.67
2019-02-03T23:20:30.308Z,2.83
2019-02-03T23:22:59.789Z,2.60
2019-02-03T23:25:28.738Z,3.17
2019-02-03T23:27:58.096Z,3.70
2019-02-03T23:30:27.099Z,3.43
2019-02-03T23:32:57.627Z,3.10
2019-02-03T23:35:27.373Z,3.60
2019-02-03T23:37:57.253Z,3.40
2019-02-03T23:40:26.738Z,3.50
2019-02-03T23:43:00.042Z,3.57
2019-02-03T23:45:30.901Z,3.13
2019-02-03T23:51:44.227Z,3.20
2019-02-03T23:54:13.321Z,3.30
2019-02-03T23:56:44.310Z,3.40
2019-02-03T23:59:14.171Z,4.07
